sensor_id;sensor_type;location;lat;lon;timestamp;temperature;humidity
17483;DHT22;8858;52.308;20.994;2022-11-25T00:01:54;0.90;99.90
17483;DHT22;8858;52.308;20.994;2022-11-25T00:04:22;0.90;99.90
17483;DHT22;8858;52.308;20.994;2022-11-25T00:06:54;0.90;99.90
17483;DHT22;8858;52.308;20.994;2022-11-25T00:09:22;0.90;99.90
17483;DHT22;8858;52.308;20.994;2022-11-25T00:11:51;0.90;99.90
17483;DHT22;8858;52.308;20.994;2022-11-25T00:14:20;0.90;99.90
17483;DHT22;8858;52.308;20.994;2022-11-25T00:16:49;0.90;99.90
17483;DHT22;8858;52.308;20.994;2022-11-25T00:19:21;0.90;99.90
17483;DHT22;8858;52.308;20.994;2022-11-25T00:21:49;1.00;99.90
17483;DHT22;8858;52.308;20.994;2022-11-25T00:24:17;1.00;99.90
17483;DHT22;8858;52.308;20.994;2022-11-25T00:26:46;1.00;99.90
17483;DHT22;8858;52.308;20.994;2022-11-25T00:29:14;1.10;99.90
17483;DHT22;8858;52.308;20.994;2022-11-25T00:31:44;1.00;99.90
17483;DHT22;8858;52.308;20.994;2022-11-25T00:34:13;1.00;99.90
17483;DHT22;8858;52.308;20.994;2022-11-25T00:36:42;1.00;99.90
17483;DHT22;8858;52.308;20.994;2022-11-25T00:39:12;1.00;99.90
17483;DHT22;8858;52.308;20.994;2022-11-25T00:41:49;1.00;99.90
17483;DHT22;8858;52.308;20.994;2022-11-25T00:44:37;1.00;99.90
17483;DHT22;8858;52.308;20.994;2022-11-25T00:47:11;1.00;99.90
17483;DHT22;8858;52.308;20.994;2022-11-25T00:49:43;1.00;99.90
17483;DHT22;8858;52.308;20.994;2022-11-25T00:52:14;1.00;99.90
17483;DHT22;8858;52.308;20.994;2022-11-25T00:54:42;1.00;99.90
17483;DHT22;8858;52.308;20.994;2022-11-25T00:57:12;1.00;99.90
17483;DHT22;8858;52.308;20.994;2022-11-25T00:59:41;1.00;99.90
17483;DHT22;8858;52.308;20.994;2022-11-25T01:02:12;1.00;99.90
17483;DHT22;8858;52.308;20.994;2022-11-25T01:04:43;1.10;99.90
17483;DHT22;8858;52.308;20.994;2022-11-25T01:07:14;1.10;99.90
17483;DHT22;8858;52.308;20.994;2022-11-25T01:09:42;1.10;99.90
17483;DHT22;8858;52.308;20.994;2022-11-25T01:12:11;1.10;99.90
17483;DHT22;8858;52.308;20.994;2022-11-25T01:14:42;1.10;99.90
17483;DHT22;8858;52.308;20.994;2022-11-25T01:17:14;1.10;99.90
17483;DHT22;8858;52.308;20.994;2022-11-25T01:19:43;1.10;99.90
17483;DHT22;8858;52.308;20.994;2022-11-25T01:22:11;1.10;99.90
17483;DHT22;8858;52.308;20.994;2022-11-25T01:24:43;1.10;99.90
17483;DHT22;8858;52.308;20.994;2022-11-25T01:27:12;1.10;99.90
17483;DHT22;8858;52.308;20.994;2022-11-25T01:29:43;1.10;99.90
17483;DHT22;8858;52.308;20.994;2022-11-25T01:32:13;1.10;99.90
17483;DHT22;8858;52.308;20.994;2022-11-25T01:34:42;1.10;99.90
17483;DHT22;8858;52.308;20.994;2022-11-25T01:37:10;1.20;99.90
17483;DHT22;8858;52.308;20.994;2022-11-25T01:39:39;1.20;99.90
17483;DHT22;8858;52.308;20.994;2022-11-25T01:42:07;1.10;99.90
17483;DHT22;8858;52.308;20.994;2022-11-25T01:44:39;1.20;99.90
17483;DHT22;8858;52.308;20.994;2022-11-25T01:47:13;1.10;99.90
17483;DHT22;8858;52.308;20.994;2022-11-25T01:49:45;1.10;99.90
17483;DHT22;8858;52.308;20.994;2022-11-25T01:52:17;1.10;99.90
17483;DHT22;8858;52.308;20.994;2022-11-25T01:54:50;1.10;99.90
17483;DHT22;8858;52.308;20.994;2022-11-25T01:57:25;1.10;99.90
17483;DHT22;8858;52.308;20.994;2022-11-25T01:59:56;1.10;99.90
17483;DHT22;8858;52.308;20.994;2022-11-25T02:02:31;1.10;99.90
17483;DHT22;8858;52.308;20.994;2022-11-25T02:05:00;1.10;99.90
17483;DHT22;8858;52.308;20.994;2022-11-25T02:07:33;1.10;99.90
17483;DHT22;8858;52.308;20.994;2022-11-25T02:10:10;1.10;99.90
17483;DHT22;8858;52.308;20.994;2022-11-25T02:12:43;1.10;99.90
17483;DHT22;8858;52.308;20.994;2022-11-25T02:15:15;1.10;99.90
17483;DHT22;8858;52.308;20.994;2022-11-25T02:17:48;1.10;99.90
17483;DHT22;8858;52.308;20.994;2022-11-25T02:20:21;1.10;99.90
17483;DHT22;8858;52.308;20.994;2022-11-25T02:22:59;1.10;99.90
17483;DHT22;8858;52.308;20.994;2022-11-25T02:25:33;1.10;99.90
17483;DHT22;8858;52.308;20.994;2022-11-25T02:28:08;1.10;99.90
17483;DHT22;8858;52.308;20.994;2022-11-25T02:30:38;1.10;99.90
17483;DHT22;8858;52.308;20.994;2022-11-25T02:33:12;1.10;99.90
17483;DHT22;8858;52.308;20.994;2022-11-25T02:35:46;1.20;99.90
17483;DHT22;8858;52.308;20.994;2022-11-25T02:38:20;1.20;99.90
17483;DHT22;8858;52.308;20.994;2022-11-25T02:40:58;1.10;99.90
17483;DHT22;8858;52.308;20.994;2022-11-25T02:43:27;1.20;99.90
17483;DHT22;8858;52.308;20.994;2022-11-25T02:46:03;1.20;99.90
17483;DHT22;8858;52.308;20.994;2022-11-25T02:48:36;1.20;99.90
17483;DHT22;8858;52.308;20.994;2022-11-25T02:51:30;1.20;99.90
17483;DHT22;8858;52.308;20.994;2022-11-25T02:53:59;1.20;99.90
17483;DHT22;8858;52.308;20.994;2022-11-25T02:56:32;1.20;99.90
17483;DHT22;8858;52.308;20.994;2022-11-25T02:59:01;1.20;99.90
17483;DHT22;8858;52.308;20.994;2022-11-25T03:01:29;1.20;99.90
17483;DHT22;8858;52.308;20.994;2022-11-25T03:03:58;1.20;99.90
17483;DHT22;8858;52.308;20.994;2022-11-25T03:06:27;1.20;99.90
17483;DHT22;8858;52.308;20.994;2022-11-25T03:08:56;1.20;99.90
17483;DHT22;8858;52.308;20.994;2022-11-25T03:11:25;1.20;99.90
17483;DHT22;8858;52.308;20.994;2022-11-25T03:14:09;1.20;99.90
17483;DHT22;8858;52.308;20.994;2022-11-25T03:16:38;1.20;99.90
17483;DHT22;8858;52.308;20.994;2022-11-25T03:19:07;1.20;99.90
17483;DHT22;8858;52.308;20.994;2022-11-25T03:21:35;1.20;99.90
17483;DHT22;8858;52.308;20.994;2022-11-25T03:24:04;1.20;99.90
17483;DHT22;8858;52.308;20.994;2022-11-25T03:26:33;1.20;99.90
17483;DHT22;8858;52.308;20.994;2022-11-25T03:29:02;1.20;99.90
17483;DHT22;8858;52.308;20.994;2022-11-25T03:31:33;1.20;99.90
17483;DHT22;8858;52.308;20.994;2022-11-25T03:34:02;1.20;99.90
17483;DHT22;8858;52.308;20.994;2022-11-25T03:36:31;1.20;99.90
17483;DHT22;8858;52.308;20.994;2022-11-25T03:38:59;1.20;99.90
17483;DHT22;8858;52.308;20.994;2022-11-25T03:41:27;1.20;99.90
17483;DHT22;8858;52.308;20.994;2022-11-25T03:43:58;1.20;99.90
17483;DHT22;8858;52.308;20.994;2022-11-25T03:46:30;1.20;99.90
17483;DHT22;8858;52.308;20.994;2022-11-25T03:49:02;1.20;99.90
17483;DHT22;8858;52.308;20.994;2022-11-25T03:51:31;1.20;99.90
17483;DHT22;8858;52.308;20.994;2022-11-25T03:53:59;1.20;99.90
17483;DHT22;8858;52.308;20.994;2022-11-25T03:56:34;1.30;99.90
17483;DHT22;8858;52.308;20.994;2022-11-25T03:59:02;1.30;99.90
17483;DHT22;8858;52.308;20.994;2022-11-25T04:01:32;1.20;99.90
17483;DHT22;8858;52.308;20.994;2022-11-25T04:04:08;1.20;99.90
17483;DHT22;8858;52.308;20.994;2022-11-25T04:06:41;1.30;99.90
17483;DHT22;8858;52.308;20.994;2022-11-25T04:09:11;1.20;99.90
17483;DHT22;8858;52.308;20.994;2022-11-25T04:11:40;1.30;99.90
17483;DHT22;8858;52.308;20.994;2022-11-25T04:14:34;1.30;99.90
17483;DHT22;8858;52.308;20.994;2022-11-25T04:17:03;1.30;99.90
17483;DHT22;8858;52.308;20.994;2022-11-25T04:19:36;1.30;99.90
17483;DHT22;8858;52.308;20.994;2022-11-25T04:22:06;1.30;99.90
17483;DHT22;8858;52.308;20.994;2022-11-25T04:24:41;1.30;99.90
17483;DHT22;8858;52.308;20.994;2022-11-25T04:27:19;1.40;99.90
17483;DHT22;8858;52.308;20.994;2022-11-25T04:29:48;1.40;99.90
17483;DHT22;8858;52.308;20.994;2022-11-25T04:32:18;1.40;99.90
17483;DHT22;8858;52.308;20.994;2022-11-25T04:34:47;1.40;99.90
17483;DHT22;8858;52.308;20.994;2022-11-25T04:37:18;1.30;99.90
17483;DHT22;8858;52.308;20.994;2022-11-25T04:39:47;1.30;99.90
17483;DHT22;8858;52.308;20.994;2022-11-25T04:42:19;1.20;99.90
17483;DHT22;8858;52.308;20.994;2022-11-25T04:45:07;1.10;99.90
17483;DHT22;8858;52.308;20.994;2022-11-25T04:47:54;1.10;99.90
17483;DHT22;8858;52.308;20.994;2022-11-25T04:50:24;1.10;99.90
17483;DHT22;8858;52.308;20.994;2022-11-25T04:53:01;1.10;99.90
17483;DHT22;8858;52.308;20.994;2022-11-25T04:55:30;1.10;99.90
17483;DHT22;8858;52.308;20.994;2022-11-25T04:58:03;1.10;99.90
17483;DHT22;8858;52.308;20.994;2022-11-25T05:00:33;1.10;99.90
17483;DHT22;8858;52.308;20.994;2022-11-25T05:03:01;1.20;99.90
17483;DHT22;8858;52.308;20.994;2022-11-25T05:05:32;1.20;99.90
17483;DHT22;8858;52.308;20.994;2022-11-25T05:08:02;1.20;99.90
17483;DHT22;8858;52.308;20.994;2022-11-25T05:10:31;1.20;99.90
17483;DHT22;8858;52.308;20.994;2022-11-25T05:12:59;1.20;99.90
17483;DHT22;8858;52.308;20.994;2022-11-25T05:15:29;1.20;99.90
17483;DHT22;8858;52.308;20.994;2022-11-25T05:17:57;1.20;99.90
17483;DHT22;8858;52.308;20.994;2022-11-25T05:20:40;1.20;99.90
17483;DHT22;8858;52.308;20.994;2022-11-25T05:23:09;1.20;99.90
17483;DHT22;8858;52.308;20.994;2022-11-25T05:25:37;1.10;99.90
17483;DHT22;8858;52.308;20.994;2022-11-25T05:28:24;1.10;99.90
17483;DHT22;8858;52.308;20.994;2022-11-25T05:30:53;1.10;99.90
17483;DHT22;8858;52.308;20.994;2022-11-25T05:33:21;1.10;99.90
17483;DHT22;8858;52.308;20.994;2022-11-25T05:35:55;1.10;99.90
17483;DHT22;8858;52.308;20.994;2022-11-25T05:38:28;1.20;99.90
17483;DHT22;8858;52.308;20.994;2022-11-25T05:41:02;1.30;99.90
17483;DHT22;8858;52.308;20.994;2022-11-25T05:43:32;1.20;99.90
17483;DHT22;8858;52.308;20.994;2022-11-25T05:46:03;1.30;99.90
17483;DHT22;8858;52.308;20.994;2022-11-25T05:48:41;1.30;99.90
17483;DHT22;8858;52.308;20.994;2022-11-25T05:51:15;1.30;99.90
17483;DHT22;8858;52.308;20.994;2022-11-25T05:53:44;1.30;99.90
17483;DHT22;8858;52.308;20.994;2022-11-25T05:56:13;1.30;99.90
17483;DHT22;8858;52.308;20.994;2022-11-25T05:59:07;1.30;99.90
17483;DHT22;8858;52.308;20.994;2022-11-25T06:01:45;1.40;99.90
17483;DHT22;8858;52.308;20.994;2022-11-25T06:04:13;1.30;99.90
17483;DHT22;8858;52.308;20.994;2022-11-25T06:06:44;1.30;99.90
17483;DHT22;8858;52.308;20.994;2022-11-25T06:09:13;1.30;99.90
17483;DHT22;8858;52.308;20.994;2022-11-25T06:11:45;1.30;99.90
17483;DHT22;8858;52.308;20.994;2022-11-25T06:14:14;1.20;99.90
17483;DHT22;8858;52.308;20.994;2022-11-25T06:16:46;1.20;99.90
17483;DHT22;8858;52.308;20.994;2022-11-25T06:19:33;1.30;99.90
17483;DHT22;8858;52.308;20.994;2022-11-25T06:22:03;1.20;99.90
17483;DHT22;8858;52.308;20.994;2022-11-25T06:24:35;1.20;99.90
17483;DHT22;8858;52.308;20.994;2022-11-25T06:27:08;1.30;99.90
17483;DHT22;8858;52.308;20.994;2022-11-25T06:29:40;1.30;99.90
17483;DHT22;8858;52.308;20.994;2022-11-25T06:32:10;1.30;99.90
17483;DHT22;8858;52.308;20.994;2022-11-25T06:34:44;1.30;99.90
17483;DHT22;8858;52.308;20.994;2022-11-25T06:37:35;1.30;99.90
17483;DHT22;8858;52.308;20.994;2022-11-25T06:40:04;1.30;99.90
17483;DHT22;8858;52.308;20.994;2022-11-25T06:42:34;1.30;99.90
17483;DHT22;8858;52.308;20.994;2022-11-25T06:45:07;1.40;99.90
17483;DHT22;8858;52.308;20.994;2022-11-25T06:47:35;1.30;99.90
17483;DHT22;8858;52.308;20.994;2022-11-25T06:50:04;1.30;99.90
17483;DHT22;8858;52.308;20.994;2022-11-25T06:52:34;1.40;99.90
17483;DHT22;8858;52.308;20.994;2022-11-25T06:55:03;1.40;99.90
17483;DHT22;8858;52.308;20.994;2022-11-25T06:57:32;1.30;99.90
17483;DHT22;8858;52.308;20.994;2022-11-25T07:00:02;1.20;99.90
17483;DHT22;8858;52.308;20.994;2022-11-25T07:02:30;1.10;99.90
17483;DHT22;8858;52.308;20.994;2022-11-25T07:05:07;1.10;99.90
17483;DHT22;8858;52.308;20.994;2022-11-25T07:07:37;1.10;99.90
17483;DHT22;8858;52.308;20.994;2022-11-25T07:10:07;1.10;99.90
17483;DHT22;8858;52.308;20.994;2022-11-25T07:12:35;1.10;99.90
17483;DHT22;8858;52.308;20.994;2022-11-25T07:15:04;1.20;99.90
17483;DHT22;8858;52.308;20.994;2022-11-25T07:17:32;1.20;99.90
17483;DHT22;8858;52.308;20.994;2022-11-25T07:20:00;1.30;99.90
17483;DHT22;8858;52.308;20.994;2022-11-25T07:22:28;1.30;99.90
17483;DHT22;8858;52.308;20.994;2022-11-25T07:24:58;1.30;99.90
17483;DHT22;8858;52.308;20.994;2022-11-25T07:27:27;1.30;99.90
17483;DHT22;8858;52.308;20.994;2022-11-25T07:29:56;1.30;99.90
17483;DHT22;8858;52.308;20.994;2022-11-25T07:32:45;1.30;99.90
17483;DHT22;8858;52.308;20.994;2022-11-25T07:35:14;1.30;99.90
17483;DHT22;8858;52.308;20.994;2022-11-25T07:37:42;1.40;99.90
17483;DHT22;8858;52.308;20.994;2022-11-25T07:40:12;1.40;99.90
17483;DHT22;8858;52.308;20.994;2022-11-25T07:42:42;1.40;99.90
17483;DHT22;8858;52.308;20.994;2022-11-25T07:45:15;1.40;99.90
17483;DHT22;8858;52.308;20.994;2022-11-25T07:47:44;1.50;99.90
17483;DHT22;8858;52.308;20.994;2022-11-25T07:50:13;1.50;99.90
17483;DHT22;8858;52.308;20.994;2022-11-25T07:52:43;1.50;99.90
17483;DHT22;8858;52.308;20.994;2022-11-25T07:55:12;1.50;99.90
17483;DHT22;8858;52.308;20.994;2022-11-25T07:57:42;1.50;99.90
17483;DHT22;8858;52.308;20.994;2022-11-25T08:00:11;1.60;99.90
17483;DHT22;8858;52.308;20.994;2022-11-25T08:02:40;1.50;99.90
17483;DHT22;8858;52.308;20.994;2022-11-25T08:05:08;1.50;99.90
17483;DHT22;8858;52.308;20.994;2022-11-25T08:07:38;1.50;99.90
17483;DHT22;8858;52.308;20.994;2022-11-25T08:10:11;1.60;99.90
17483;DHT22;8858;52.308;20.994;2022-11-25T08:12:43;1.60;99.90
17483;DHT22;8858;52.308;20.994;2022-11-25T08:15:12;1.60;99.90
17483;DHT22;8858;52.308;20.994;2022-11-25T08:17:41;1.60;99.90
17483;DHT22;8858;52.308;20.994;2022-11-25T08:20:09;1.70;99.90
17483;DHT22;8858;52.308;20.994;2022-11-25T08:22:38;1.80;99.90
17483;DHT22;8858;52.308;20.994;2022-11-25T08:25:08;1.80;99.90
17483;DHT22;8858;52.308;20.994;2022-11-25T08:27:37;1.70;99.90
17483;DHT22;8858;52.308;20.994;2022-11-25T08:30:08;1.70;99.90
17483;DHT22;8858;52.308;20.994;2022-11-25T08:32:39;1.70;99.90
17483;DHT22;8858;52.308;20.994;2022-11-25T08:35:07;1.70;99.90
17483;DHT22;8858;52.308;20.994;2022-11-25T08:37:36;1.70;99.90
17483;DHT22;8858;52.308;20.994;2022-11-25T08:40:06;1.80;99.90
17483;DHT22;8858;52.308;20.994;2022-11-25T08:42:36;1.80;99.90
17483;DHT22;8858;52.308;20.994;2022-11-25T08:45:06;1.70;99.90
17483;DHT22;8858;52.308;20.994;2022-11-25T08:47:35;1.70;99.90
17483;DHT22;8858;52.308;20.994;2022-11-25T08:50:09;1.70;99.90
17483;DHT22;8858;52.308;20.994;2022-11-25T08:52:40;1.60;99.90
17483;DHT22;8858;52.308;20.994;2022-11-25T08:55:08;1.70;99.90
17483;DHT22;8858;52.308;20.994;2022-11-25T08:57:38;1.70;99.90
17483;DHT22;8858;52.308;20.994;2022-11-25T09:00:09;1.70;99.90
17483;DHT22;8858;52.308;20.994;2022-11-25T09:02:38;1.70;99.90
17483;DHT22;8858;52.308;20.994;2022-11-25T09:05:11;1.70;99.90
17483;DHT22;8858;52.308;20.994;2022-11-25T09:07:43;1.70;99.90
17483;DHT22;8858;52.308;20.994;2022-11-25T09:10:16;1.80;99.90
17483;DHT22;8858;52.308;20.994;2022-11-25T09:12:45;1.80;99.90
17483;DHT22;8858;52.308;20.994;2022-11-25T09:15:14;1.80;99.90
17483;DHT22;8858;52.308;20.994;2022-11-25T09:17:43;1.70;99.90
17483;DHT22;8858;52.308;20.994;2022-11-25T09:20:18;1.80;99.90
17483;DHT22;8858;52.308;20.994;2022-11-25T09:22:46;1.80;99.90
17483;DHT22;8858;52.308;20.994;2022-11-25T09:25:15;1.80;99.90
17483;DHT22;8858;52.308;20.994;2022-11-25T09:27:45;1.80;99.90
17483;DHT22;8858;52.308;20.994;2022-11-25T09:30:14;1.90;99.90
17483;DHT22;8858;52.308;20.994;2022-11-25T09:32:43;1.90;99.90
17483;DHT22;8858;52.308;20.994;2022-11-25T09:35:15;2.00;99.90
17483;DHT22;8858;52.308;20.994;2022-11-25T09:37:42;2.10;99.90
17483;DHT22;8858;52.308;20.994;2022-11-25T09:40:17;2.10;99.90
17483;DHT22;8858;52.308;20.994;2022-11-25T09:42:53;2.10;99.90
17483;DHT22;8858;52.308;20.994;2022-11-25T09:45:48;2.20;99.90
17483;DHT22;8858;52.308;20.994;2022-11-25T09:48:50;2.20;99.90
17483;DHT22;8858;52.308;20.994;2022-11-25T09:51:23;2.20;99.90
17483;DHT22;8858;52.308;20.994;2022-11-25T09:53:58;2.10;99.90
17483;DHT22;8858;52.308;20.994;2022-11-25T09:56:34;2.10;99.90
17483;DHT22;8858;52.308;20.994;2022-11-25T09:59:11;2.10;99.90
17483;DHT22;8858;52.308;20.994;2022-11-25T10:01:46;2.10;99.90
17483;DHT22;8858;52.308;20.994;2022-11-25T10:04:20;2.10;99.90
17483;DHT22;8858;52.308;20.994;2022-11-25T10:06:54;2.10;99.90
17483;DHT22;8858;52.308;20.994;2022-11-25T10:09:25;2.00;99.90
17483;DHT22;8858;52.308;20.994;2022-11-25T10:11:58;2.10;99.90
17483;DHT22;8858;52.308;20.994;2022-11-25T10:14:41;2.00;99.90
17483;DHT22;8858;52.308;20.994;2022-11-25T10:17:17;2.00;99.90
17483;DHT22;8858;52.308;20.994;2022-11-25T10:19:53;2.00;99.90
17483;DHT22;8858;52.308;20.994;2022-11-25T10:22:24;2.00;99.90
17483;DHT22;8858;52.308;20.994;2022-11-25T10:24:55;2.00;99.90
17483;DHT22;8858;52.308;20.994;2022-11-25T10:27:30;2.00;99.90
17483;DHT22;8858;52.308;20.994;2022-11-25T10:30:12;2.00;99.90
17483;DHT22;8858;52.308;20.994;2022-11-25T10:32:46;2.00;99.90
17483;DHT22;8858;52.308;20.994;2022-11-25T10:35:24;2.00;99.90
17483;DHT22;8858;52.308;20.994;2022-11-25T10:37:59;2.00;99.90
17483;DHT22;8858;52.308;20.994;2022-11-25T10:40:30;2.10;99.90
17483;DHT22;8858;52.308;20.994;2022-11-25T10:43:00;2.10;99.90
17483;DHT22;8858;52.308;20.994;2022-11-25T10:45:37;2.10;99.90
17483;DHT22;8858;52.308;20.994;2022-11-25T10:48:37;2.20;99.90
17483;DHT22;8858;52.308;20.994;2022-11-25T10:51:22;2.20;99.90
17483;DHT22;8858;52.308;20.994;2022-11-25T10:54:11;2.30;99.90
17483;DHT22;8858;52.308;20.994;2022-11-25T10:56:47;2.30;99.90
17483;DHT22;8858;52.308;20.994;2022-11-25T10:59:25;2.20;99.90
17483;DHT22;8858;52.308;20.994;2022-11-25T11:02:16;2.20;99.90
17483;DHT22;8858;52.308;20.994;2022-11-25T11:04:57;2.20;99.90
17483;DHT22;8858;52.308;20.994;2022-11-25T11:07:28;2.20;99.90
17483;DHT22;8858;52.308;20.994;2022-11-25T11:10:23;2.30;99.90
17483;DHT22;8858;52.308;20.994;2022-11-25T11:12:57;2.30;99.90
17483;DHT22;8858;52.308;20.994;2022-11-25T11:15:28;2.30;99.90
17483;DHT22;8858;52.308;20.994;2022-11-25T11:18:12;2.40;99.90
17483;DHT22;8858;52.308;20.994;2022-11-25T11:20:45;2.40;99.90
17483;DHT22;8858;52.308;20.994;2022-11-25T11:23:14;2.40;99.90
17483;DHT22;8858;52.308;20.994;2022-11-25T11:25:54;2.50;99.90
17483;DHT22;8858;52.308;20.994;2022-11-25T11:28:25;2.40;99.90
17483;DHT22;8858;52.308;20.994;2022-11-25T11:30:56;2.50;99.90
17483;DHT22;8858;52.308;20.994;2022-11-25T11:33:32;2.50;99.90
17483;DHT22;8858;52.308;20.994;2022-11-25T11:36:23;2.50;99.90
17483;DHT22;8858;52.308;20.994;2022-11-25T11:39:04;2.50;99.90
17483;DHT22;8858;52.308;20.994;2022-11-25T11:41:42;2.50;99.90
17483;DHT22;8858;52.308;20.994;2022-11-25T11:44:17;2.50;99.90
17483;DHT22;8858;52.308;20.994;2022-11-25T11:47:09;2.50;99.90
17483;DHT22;8858;52.308;20.994;2022-11-25T11:50:00;2.60;99.90
17483;DHT22;8858;52.308;20.994;2022-11-25T11:52:40;2.50;99.90
17483;DHT22;8858;52.308;20.994;2022-11-25T11:55:27;2.60;99.90
17483;DHT22;8858;52.308;20.994;2022-11-25T11:58:07;2.60;99.90
17483;DHT22;8858;52.308;20.994;2022-11-25T12:00:46;2.60;99.90
17483;DHT22;8858;52.308;20.994;2022-11-25T12:03:19;2.60;99.90
17483;DHT22;8858;52.308;20.994;2022-11-25T12:05:51;2.60;99.90
17483;DHT22;8858;52.308;20.994;2022-11-25T12:08:28;2.60;99.90
17483;DHT22;8858;52.308;20.994;2022-11-25T12:11:02;2.60;99.90
17483;DHT22;8858;52.308;20.994;2022-11-25T12:13:36;2.70;99.90
17483;DHT22;8858;52.308;20.994;2022-11-25T12:16:16;2.70;99.90
17483;DHT22;8858;52.308;20.994;2022-11-25T12:18:49;2.70;99.90
17483;DHT22;8858;52.308;20.994;2022-11-25T12:21:35;2.70;99.90
17483;DHT22;8858;52.308;20.994;2022-11-25T12:24:15;2.70;99.90
17483;DHT22;8858;52.308;20.994;2022-11-25T12:26:47;2.70;99.90
17483;DHT22;8858;52.308;20.994;2022-11-25T12:29:24;2.80;99.90
17483;DHT22;8858;52.308;20.994;2022-11-25T12:32:00;2.80;99.90
17483;DHT22;8858;52.308;20.994;2022-11-25T12:34:36;2.80;99.90
17483;DHT22;8858;52.308;20.994;2022-11-25T12:37:12;2.80;99.90
17483;DHT22;8858;52.308;20.994;2022-11-25T12:39:47;2.80;99.90
17483;DHT22;8858;52.308;20.994;2022-11-25T12:42:23;2.80;99.90
17483;DHT22;8858;52.308;20.994;2022-11-25T12:44:57;2.80;99.90
17483;DHT22;8858;52.308;20.994;2022-11-25T12:47:28;2.80;99.90
17483;DHT22;8858;52.308;20.994;2022-11-25T12:49:58;2.80;99.90
17483;DHT22;8858;52.308;20.994;2022-11-25T12:52:40;2.80;99.90
17483;DHT22;8858;52.308;20.994;2022-11-25T12:55:14;2.80;99.90
17483;DHT22;8858;52.308;20.994;2022-11-25T12:58:08;2.80;99.90
17483;DHT22;8858;52.308;20.994;2022-11-25T13:00:59;2.80;99.90
17483;DHT22;8858;52.308;20.994;2022-11-25T13:03:55;2.80;99.90
17483;DHT22;8858;52.308;20.994;2022-11-25T13:10:05;2.80;99.90
17483;DHT22;8858;52.308;20.994;2022-11-25T13:12:49;2.90;99.90
17483;DHT22;8858;52.308;20.994;2022-11-25T13:15:25;2.80;99.90
17483;DHT22;8858;52.308;20.994;2022-11-25T13:17:58;2.80;99.90
17483;DHT22;8858;52.308;20.994;2022-11-25T13:20:43;2.80;99.90
17483;DHT22;8858;52.308;20.994;2022-11-25T13:23:29;2.80;99.90
17483;DHT22;8858;52.308;20.994;2022-11-25T13:32:38;2.70;99.90
17483;DHT22;8858;52.308;20.994;2022-11-25T13:35:48;2.70;99.90
17483;DHT22;8858;52.308;20.994;2022-11-25T13:38:36;2.70;99.90
17483;DHT22;8858;52.308;20.994;2022-11-25T13:41:41;2.60;99.90
17483;DHT22;8858;52.308;20.994;2022-11-25T13:44:22;2.60;99.90
17483;DHT22;8858;52.308;20.994;2022-11-25T13:46:55;2.60;99.90
17483;DHT22;8858;52.308;20.994;2022-11-25T13:49:41;2.60;99.90
17483;DHT22;8858;52.308;20.994;2022-11-25T13:52:41;2.60;99.90
17483;DHT22;8858;52.308;20.994;2022-11-25T13:55:31;2.60;99.90
17483;DHT22;8858;52.308;20.994;2022-11-25T13:58:21;2.60;99.90
17483;DHT22;8858;52.308;20.994;2022-11-25T14:01:02;2.60;99.90
17483;DHT22;8858;52.308;20.994;2022-11-25T14:03:43;2.60;99.90
17483;DHT22;8858;52.308;20.994;2022-11-25T14:09:36;2.60;99.90
17483;DHT22;8858;52.308;20.994;2022-11-25T14:12:32;2.60;99.90
17483;DHT22;8858;52.308;20.994;2022-11-25T14:15:31;2.60;99.90
17483;DHT22;8858;52.308;20.994;2022-11-25T14:18:23;2.60;99.90
17483;DHT22;8858;52.308;20.994;2022-11-25T14:21:27;2.60;99.90
17483;DHT22;8858;52.308;20.994;2022-11-25T14:24:10;2.60;99.90
17483;DHT22;8858;52.308;20.994;2022-11-25T14:26:43;2.60;99.90
17483;DHT22;8858;52.308;20.994;2022-11-25T14:29:20;2.60;99.90
17483;DHT22;8858;52.308;20.994;2022-11-25T14:31:54;2.60;99.90
17483;DHT22;8858;52.308;20.994;2022-11-25T14:34:29;2.70;99.90
17483;DHT22;8858;52.308;20.994;2022-11-25T14:37:09;2.70;99.90
17483;DHT22;8858;52.308;20.994;2022-11-25T14:39:45;2.70;99.90
17483;DHT22;8858;52.308;20.994;2022-11-25T14:42:17;2.60;99.90
17483;DHT22;8858;52.308;20.994;2022-11-25T14:44:48;2.70;99.90
17483;DHT22;8858;52.308;20.994;2022-11-25T14:47:21;2.70;99.90
17483;DHT22;8858;52.308;20.994;2022-11-25T14:49:51;2.70;99.90
17483;DHT22;8858;52.308;20.994;2022-11-25T14:52:45;2.70;99.90
17483;DHT22;8858;52.308;20.994;2022-11-25T14:55:24;2.70;99.90
17483;DHT22;8858;52.308;20.994;2022-11-25T14:57:54;2.70;99.90
17483;DHT22;8858;52.308;20.994;2022-11-25T15:00:23;2.70;99.90
17483;DHT22;8858;52.308;20.994;2022-11-25T15:02:54;2.70;99.90
17483;DHT22;8858;52.308;20.994;2022-11-25T15:05:25;2.70;99.90
17483;DHT22;8858;52.308;20.994;2022-11-25T15:08:00;2.70;99.90
17483;DHT22;8858;52.308;20.994;2022-11-25T15:10:35;2.70;99.90
17483;DHT22;8858;52.308;20.994;2022-11-25T15:13:12;2.70;99.90
17483;DHT22;8858;52.308;20.994;2022-11-25T15:15:44;2.80;99.90
17483;DHT22;8858;52.308;20.994;2022-11-25T15:18:19;2.80;99.90
17483;DHT22;8858;52.308;20.994;2022-11-25T15:20:52;2.80;99.90
17483;DHT22;8858;52.308;20.994;2022-11-25T15:23:27;2.80;99.90
17483;DHT22;8858;52.308;20.994;2022-11-25T15:25:57;2.80;99.90
17483;DHT22;8858;52.308;20.994;2022-11-25T15:28:32;2.80;99.90
17483;DHT22;8858;52.308;20.994;2022-11-25T15:31:06;2.80;99.90
17483;DHT22;8858;52.308;20.994;2022-11-25T15:33:35;2.80;99.90
17483;DHT22;8858;52.308;20.994;2022-11-25T15:36:04;2.80;99.90
17483;DHT22;8858;52.308;20.994;2022-11-25T15:38:40;2.80;99.90
17483;DHT22;8858;52.308;20.994;2022-11-25T15:41:31;2.70;99.90
17483;DHT22;8858;52.308;20.994;2022-11-25T15:44:01;2.70;99.90
17483;DHT22;8858;52.308;20.994;2022-11-25T15:46:32;2.70;99.90
17483;DHT22;8858;52.308;20.994;2022-11-25T15:49:03;2.70;99.90
17483;DHT22;8858;52.308;20.994;2022-11-25T15:51:36;2.70;99.90
17483;DHT22;8858;52.308;20.994;2022-11-25T15:54:14;2.70;99.90
17483;DHT22;8858;52.308;20.994;2022-11-25T15:56:48;2.70;99.90
17483;DHT22;8858;52.308;20.994;2022-11-25T15:59:41;2.70;99.90
17483;DHT22;8858;52.308;20.994;2022-11-25T16:02:34;2.80;99.90
17483;DHT22;8858;52.308;20.994;2022-11-25T16:05:32;2.80;99.90
17483;DHT22;8858;52.308;20.994;2022-11-25T16:08:19;2.80;99.90
17483;DHT22;8858;52.308;20.994;2022-11-25T16:10:57;2.80;99.90
17483;DHT22;8858;52.308;20.994;2022-11-25T16:13:44;2.70;99.90
17483;DHT22;8858;52.308;20.994;2022-11-25T16:16:19;2.80;99.90
17483;DHT22;8858;52.308;20.994;2022-11-25T16:21:49;2.80;99.90
17483;DHT22;8858;52.308;20.994;2022-11-25T16:24:34;2.80;99.90
17483;DHT22;8858;52.308;20.994;2022-11-25T16:27:12;2.80;99.90
17483;DHT22;8858;52.308;20.994;2022-11-25T16:29:54;2.80;99.90
17483;DHT22;8858;52.308;20.994;2022-11-25T16:32:24;2.80;99.90
17483;DHT22;8858;52.308;20.994;2022-11-25T16:34:54;2.80;99.90
17483;DHT22;8858;52.308;20.994;2022-11-25T16:37:22;2.80;99.90
17483;DHT22;8858;52.308;20.994;2022-11-25T16:39:51;2.70;99.90
17483;DHT22;8858;52.308;20.994;2022-11-25T16:42:21;2.70;99.90
17483;DHT22;8858;52.308;20.994;2022-11-25T16:44:50;2.70;99.90
17483;DHT22;8858;52.308;20.994;2022-11-25T16:47:20;2.70;99.90